createdAt,value
2018-04-01T00:00:06.164Z,60.6
2018-04-01T00:01:08.832Z,60.6
2018-04-01T00:02:11.210Z,60.5
2018-04-01T00:03:13.856Z,60.6
2018-04-01T00:04:16.241Z,60.6
2018-04-01T00:05:18.597Z,60.6
2018-04-01T00:06:20.966Z,60.6
2018-04-01T00:07:23.344Z,60.7
2018-04-01T00:08:25.711Z,60.7
2018-04-01T00:09:28.078Z,60.7
2018-04-01T00:10:30.454Z,60.7
2018-04-01T00:11:32.814Z,60.7
2018-04-01T00:12:35.466Z,60.8
2018-04-01T00:13:37.838Z,60.9
2018-04-01T00:14:40.191Z,60.8
2018-04-01T00:15:42.565Z,60.8
2018-04-01T00:16:44.931Z,60.7
2018-04-01T00:17:47.295Z,60.5
2018-04-01T00:18:49.969Z,60.6
2018-04-01T00:19:52.336Z,60.7
2018-04-01T00:20:54.705Z,60.7
2018-04-01T00:21:57.101Z,60.6
2018-04-01T00:22:59.453Z,60.7
2018-04-01T00:24:01.826Z,60.7
2018-04-01T00:25:04.777Z,60.7
2018-04-01T00:26:07.435Z,60.6
2018-04-01T00:27:09.799Z,60.7
2018-04-01T00:28:12.174Z,60.6
2018-04-01T00:29:15.108Z,60.8
2018-04-01T00:30:17.491Z,60.7
2018-04-01T00:31:19.846Z,60.7
2018-04-01T00:32:22.220Z,60.6
2018-04-01T00:33:24.594Z,60.7
2018-04-01T00:34:26.960Z,60.7
2018-04-01T00:35:29.320Z,60.7
2018-04-01T00:36:31.690Z,60.8
2018-04-01T00:37:34.050Z,60.8
2018-04-01T00:38:36.435Z,60.8
2018-04-01T00:39:38.802Z,60.7
2018-04-01T00:40:41.455Z,60.7
2018-04-01T00:41:43.829Z,60.7
2018-04-01T00:42:46.196Z,60.7
2018-04-01T00:43:48.565Z,60.7
2018-04-01T00:44:50.938Z,60.7
2018-04-01T00:45:53.305Z,60.7
2018-04-01T00:46:55.673Z,60.8
2018-04-01T00:47:58.057Z,60.7
2018-04-01T00:49:00.413Z,60.7
2018-04-01T00:50:02.791Z,60.7
2018-04-01T00:51:05.438Z,60.9
2018-04-01T00:52:07.801Z,60.9
2018-04-01T00:53:10.184Z,61
2018-04-01T00:54:12.839Z,60.8
2018-04-01T00:55:15.197Z,60.8
2018-04-01T00:56:17.576Z,60.8
2018-04-01T00:57:19.939Z,60.7
2018-04-01T00:58:22.312Z,60.7
2018-04-01T00:59:24.683Z,60.7
2018-04-01T01:00:27.059Z,60.8
2018-04-01T01:01:29.431Z,60.8
2018-04-01T01:02:31.789Z,60.8
2018-04-01T01:03:34.159Z,60.8
2018-04-01T01:04:36.521Z,60.9
2018-04-01T01:05:38.892Z,61
2018-04-01T01:06:41.257Z,60.9
2018-04-01T01:07:43.626Z,60.8
2018-04-01T01:08:45.996Z,61
2018-04-01T01:09:48.661Z,60.7
2018-04-01T01:10:51.029Z,60.9
2018-04-01T01:11:53.397Z,60.9
2018-04-01T01:12:55.779Z,60.9
2018-04-01T01:13:58.134Z,60.7
2018-04-01T01:15:00.501Z,60.7
2018-04-01T01:16:02.875Z,60.9
2018-04-01T01:17:05.244Z,60.9
2018-04-01T01:18:07.616Z,60.7
2018-04-01T01:19:10.269Z,60.8
2018-04-01T01:20:12.627Z,60.9
2018-04-01T01:21:15.007Z,61
2018-04-01T01:22:17.386Z,61
2018-04-01T01:23:19.749Z,60.9
2018-04-01T01:24:22.119Z,60.8
2018-04-01T01:25:24.487Z,60.8
2018-04-01T01:26:26.867Z,60.9
2018-04-01T01:27:29.244Z,61
2018-04-01T01:28:31.603Z,61
2018-04-01T01:29:34.014Z,60.9
2018-04-01T01:30:36.342Z,60.9
2018-04-01T01:31:38.709Z,60.9
2018-04-01T01:32:41.078Z,61.1
2018-04-01T01:33:43.445Z,60.9
2018-04-01T01:34:46.104Z,61
2018-04-01T01:35:48.789Z,61.1
2018-04-01T01:36:51.157Z,61.1
2018-04-01T01:37:53.535Z,61
2018-04-01T01:38:56.185Z,61
2018-04-01T01:39:58.563Z,61.1
2018-04-01T01:41:01.208Z,61
2018-04-01T01:42:03.580Z,61.1
2018-04-01T01:43:05.944Z,61.1
2018-04-01T01:44:08.600Z,61.1
2018-04-01T01:45:10.966Z,61.1
2018-04-01T01:46:13.334Z,61.1
2018-04-01T01:47:15.690Z,61.1
2018-04-01T01:48:18.070Z,61.1
2018-04-01T01:49:20.433Z,61.1
2018-04-01T01:50:22.807Z,61.1
2018-04-01T01:51:25.173Z,61.1
2018-04-01T01:52:27.826Z,61.1
2018-04-01T01:53:30.198Z,61.1
2018-04-01T01:54:32.582Z,61.1
2018-04-01T01:55:35.225Z,61.1
2018-04-01T01:56:37.600Z,61.2
2018-04-01T01:57:39.967Z,61.1
2018-04-01T01:58:42.338Z,61.2
2018-04-01T01:59:44.693Z,61.1
2018-04-01T02:00:47.065Z,61.1
2018-04-01T02:01:49.433Z,61.2
2018-04-01T02:02:52.076Z,61.2
2018-04-01T02:03:54.449Z,61.2
2018-04-01T02:04:56.825Z,61.2
2018-04-01T02:05:59.473Z,61.2
2018-04-01T02:07:01.848Z,61.1
2018-04-01T02:08:04.215Z,61.1
2018-04-01T02:09:06.874Z,61.1
2018-04-01T02:10:09.248Z,61.1
2018-04-01T02:11:11.612Z,61.1
2018-04-01T02:12:13.981Z,61.1
2018-04-01T02:13:16.356Z,61.1
2018-04-01T02:14:19.003Z,61.2
2018-04-01T02:15:21.655Z,61.1
2018-04-01T02:16:24.029Z,61.1
2018-04-01T02:17:26.393Z,61.2
2018-04-01T02:18:28.770Z,61.2
2018-04-01T02:19:31.146Z,61.2
2018-04-01T02:20:33.499Z,61.2
2018-04-01T02:21:36.427Z,61.2
2018-04-01T02:22:38.792Z,61.3
2018-04-01T02:23:41.164Z,61.3
2018-04-01T02:24:43.814Z,61.5
2018-04-01T02:25:46.184Z,61.4
2018-04-01T02:26:48.550Z,61.4
2018-04-01T02:27:50.908Z,61.4
2018-04-01T02:28:53.277Z,61.5
2018-04-01T02:29:55.637Z,61.3
2018-04-01T02:30:58.019Z,61.3
2018-04-01T02:32:00.379Z,61.3
2018-04-01T02:33:02.746Z,61.4
2018-04-01T02:34:05.118Z,61.3
2018-04-01T02:35:07.500Z,61.5
2018-04-01T02:36:10.152Z,61.3
2018-04-01T02:37:12.522Z,61.2
2018-04-01T02:38:14.886Z,61.2
2018-04-01T02:39:17.540Z,61.4
2018-04-01T02:40:21.066Z,61.3
2018-04-01T02:41:23.712Z,61.4
2018-04-01T02:42:26.078Z,61.3
2018-04-01T02:43:28.731Z,61.4
2018-04-01T02:44:31.379Z,61.3
2018-04-01T02:45:34.033Z,61.4
2018-04-01T02:46:36.680Z,61.5
2018-04-01T02:47:39.105Z,61.4
2018-04-01T02:48:41.482Z,61.4
2018-04-01T02:49:43.851Z,61.3
2018-04-01T02:50:46.218Z,61.3
2018-04-01T02:51:48.874Z,61.3
2018-04-01T02:52:51.236Z,61.4
2018-04-01T02:53:53.906Z,61.4
2018-04-01T02:54:56.263Z,61.4
2018-04-01T02:55:58.637Z,61.4
2018-04-01T02:57:01.010Z,61.3
2018-04-01T02:58:03.670Z,61.3
2018-04-01T02:59:06.313Z,61.5
2018-04-01T03:00:08.683Z,61.6
2018-04-01T03:01:11.362Z,61.5
2018-04-01T03:02:14.013Z,61.6
2018-04-01T03:03:16.390Z,61.5
2018-04-01T03:04:19.060Z,61.5
2018-04-01T03:05:21.424Z,61.5
2018-04-01T03:06:24.402Z,61.4
2018-04-01T03:07:26.764Z,61.4
2018-04-01T03:08:29.705Z,61.4
2018-04-01T03:09:32.074Z,61.6
2018-04-01T03:10:34.441Z,61.6
2018-04-01T03:11:37.372Z,61.6
2018-04-01T03:12:39.745Z,61.6
2018-04-01T03:13:42.391Z,61.6
2018-04-01T03:14:44.771Z,61.7
2018-04-01T03:15:47.143Z,61.6
2018-04-01T03:16:49.508Z,61.7
2018-04-01T03:17:51.890Z,61.6
2018-04-01T03:18:54.255Z,61.5
2018-04-01T03:19:56.629Z,61.4
2018-04-01T03:20:58.995Z,61.6
2018-04-01T03:22:01.359Z,61.7
2018-04-01T03:23:03.731Z,61.6
2018-04-01T03:24:06.098Z,61.6
2018-04-01T03:25:08.472Z,61.6
2018-04-01T03:26:11.136Z,61.7
2018-04-01T03:27:13.779Z,61.5
2018-04-01T03:28:16.430Z,61.6
2018-04-01T03:29:18.806Z,61.7
2018-04-01T03:30:21.181Z,61.7
2018-04-01T03:31:23.556Z,61.7
2018-04-01T03:32:26.200Z,61.6
2018-04-01T03:33:28.562Z,61.5
2018-04-01T03:34:30.955Z,61.5
2018-04-01T03:35:33.308Z,61.4
2018-04-01T03:36:35.970Z,61.6
2018-04-01T03:37:38.346Z,61.6
2018-04-01T03:38:40.716Z,61.7
2018-04-01T03:39:43.085Z,61.7
2018-04-01T03:40:45.459Z,61.5
2018-04-01T03:41:47.813Z,61.6
2018-04-01T03:42:50.461Z,61.5
2018-04-01T03:43:52.828Z,61.4
2018-04-01T03:44:55.203Z,61.5
2018-04-01T03:45:57.572Z,61.5
2018-04-01T03:47:00.231Z,61.4
2018-04-01T03:48:02.875Z,61.4
2018-04-01T03:49:05.252Z,61.3
2018-04-01T03:50:07.615Z,61.3
2018-04-01T03:51:09.976Z,61.3
2018-04-01T03:52:12.628Z,61.4
2018-04-01T03:53:14.990Z,61.5
2018-04-01T03:54:17.364Z,61.5
2018-04-01T03:55:19.740Z,61.4
2018-04-01T03:56:22.390Z,61.3
2018-04-01T03:57:24.764Z,61.4
2018-04-01T03:58:27.130Z,61.4
2018-04-01T03:59:29.785Z,61.5
2018-04-01T04:00:32.170Z,61.5
2018-04-01T04:01:34.812Z,61.4
2018-04-01T04:02:37.482Z,61.5
2018-04-01T04:03:40.140Z,61.5
2018-04-01T04:04:42.513Z,61.6
2018-04-01T04:05:44.888Z,61.7
2018-04-01T04:06:47.260Z,61.8
2018-04-01T04:07:49.624Z,61.7
2018-04-01T04:08:51.982Z,61.7
2018-04-01T04:09:54.347Z,61.6
2018-04-01T04:10:57.003Z,61.6
2018-04-01T04:11:59.375Z,61.5
2018-04-01T04:13:01.741Z,61.6
2018-04-01T04:14:04.396Z,61.5
2018-04-01T04:15:06.786Z,61.6
2018-04-01T04:16:09.140Z,61.5
2018-04-01T04:17:11.789Z,61.5
2018-04-01T04:18:14.151Z,61.6
2018-04-01T04:19:16.517Z,61.6
2018-04-01T04:20:18.898Z,61.8
2018-04-01T04:21:21.269Z,61.6
2018-04-01T04:22:23.624Z,61.7
2018-04-01T04:23:25.996Z,61.6
2018-04-01T04:24:28.661Z,61.6
2018-04-01T04:25:31.314Z,61.7
2018-04-01T04:26:33.673Z,61.7
2018-04-01T04:27:36.040Z,61.7
2018-04-01T04:28:38.406Z,61.7
2018-04-01T04:29:41.055Z,61.8
2018-04-01T04:30:43.434Z,61.7
2018-04-01T04:31:45.794Z,61.8
2018-04-01T04:32:48.455Z,61.9
2018-04-01T04:33:51.114Z,61.8
2018-04-01T04:34:53.765Z,61.7
2018-04-01T04:35:56.143Z,61.7
2018-04-01T04:36:58.498Z,61.7
2018-04-01T04:38:01.137Z,61.6
2018-04-01T04:39:03.804Z,61.5
2018-04-01T04:40:06.459Z,61.6
2018-04-01T04:41:08.816Z,61.7
2018-04-01T04:42:11.480Z,61.7
2018-04-01T04:43:13.852Z,61.8
2018-04-01T04:44:16.499Z,61.8
2018-04-01T04:45:18.877Z,61.8
2018-04-01T04:46:21.532Z,61.8
2018-04-01T04:47:23.895Z,61.7
2018-04-01T04:48:26.279Z,61.7
2018-04-01T04:49:28.654Z,61.8
2018-04-01T04:50:31.007Z,61.8
2018-04-01T04:51:33.663Z,61.8
2018-04-01T04:52:36.026Z,61.9
2018-04-01T04:53:38.393Z,61.8
2018-04-01T04:54:40.766Z,61.8
2018-04-01T04:55:43.135Z,61.8
2018-04-01T04:56:45.509Z,61.8
2018-04-01T04:57:47.862Z,61.8
2018-04-01T04:58:50.235Z,61.7
2018-04-01T04:59:52.597Z,61.8
2018-04-01T05:00:55.260Z,61.9
2018-04-01T05:01:57.938Z,62
2018-04-01T05:03:00.301Z,62
2018-04-01T05:04:02.676Z,62
2018-04-01T05:05:05.349Z,61.9
2018-04-01T05:06:07.708Z,61.8
2018-04-01T05:07:10.083Z,61.9
2018-04-01T05:08:12.477Z,61.9
2018-04-01T05:09:14.844Z,61.9
2018-04-01T05:10:17.222Z,61.8
2018-04-01T05:11:19.591Z,61.9
2018-04-01T05:12:21.950Z,61.8
2018-04-01T05:13:24.310Z,61.9
2018-04-01T05:14:26.682Z,61.9
2018-04-01T05:15:29.043Z,61.9
2018-04-01T05:16:31.404Z,62
2018-04-01T05:17:33.772Z,62
2018-04-01T05:18:36.141Z,62
2018-04-01T05:19:38.531Z,62.1
2018-04-01T05:20:41.471Z,62.2
2018-04-01T05:21:43.846Z,62.2
2018-04-01T05:22:46.218Z,62.1
2018-04-01T05:23:48.579Z,62.1
2018-04-01T05:24:51.222Z,62.1
2018-04-01T05:25:53.588Z,62
2018-04-01T05:26:55.964Z,62
2018-04-01T05:27:58.612Z,62
2018-04-01T05:29:00.988Z,62
2018-04-01T05:30:03.910Z,62.1
2018-04-01T05:31:06.294Z,62.1
2018-04-01T05:32:08.663Z,62.1
2018-04-01T05:33:11.039Z,62.1
2018-04-01T05:34:13.406Z,62.2
2018-04-01T05:35:15.764Z,62.2
2018-04-01T05:36:18.135Z,62.1
2018-04-01T05:37:20.513Z,62.2
2018-04-01T05:38:22.866Z,62.2
2018-04-01T05:39:25.236Z,62.1
2018-04-01T05:40:27.614Z,62.3
2018-04-01T05:41:29.977Z,62.1
2018-04-01T05:42:32.634Z,62.2
2018-04-01T05:43:35.009Z,62.3
2018-04-01T05:44:37.647Z,62.2
2018-04-01T05:45:40.026Z,62.3
2018-04-01T05:46:42.394Z,62.2
2018-04-01T05:47:45.047Z,62.1
2018-04-01T05:48:47.412Z,62.2
2018-04-01T05:49:49.789Z,62.1
2018-04-01T05:50:52.152Z,62.2
2018-04-01T05:51:54.524Z,62.1
2018-04-01T05:52:56.894Z,62.1
2018-04-01T05:53:59.264Z,62.2
2018-04-01T05:55:01.626Z,62.2
2018-04-01T05:56:04.284Z,62.2
2018-04-01T05:57:06.939Z,62.1
2018-04-01T05:58:09.310Z,62.1
2018-04-01T05:59:11.676Z,62.1
2018-04-01T06:00:14.327Z,62
2018-04-01T06:01:16.699Z,62
2018-04-01T06:02:19.076Z,62.1
2018-04-01T06:03:21.448Z,62.2
2018-04-01T06:04:24.083Z,62.1
2018-04-01T06:05:26.732Z,62.2
2018-04-01T06:06:29.110Z,62.3
2018-04-01T06:07:31.474Z,62.3
2018-04-01T06:08:33.846Z,62.3
2018-04-01T06:09:36.204Z,62.4
2018-04-01T06:10:38.566Z,62.5
2018-04-01T06:11:40.953Z,62.5
2018-04-01T06:12:43.325Z,62.6
2018-04-01T06:13:45.976Z,62.3
2018-04-01T06:14:48.350Z,62.3
2018-04-01T06:15:50.720Z,62.3
2018-04-01T06:16:53.099Z,62.3
2018-04-01T06:17:55.471Z,62.2
2018-04-01T06:18:58.150Z,62.3
2018-04-01T06:20:00.765Z,62.3
2018-04-01T06:21:03.148Z,62.3
2018-04-01T06:22:06.110Z,62.3
2018-04-01T06:23:08.751Z,62.4
2018-04-01T06:24:11.131Z,62.3
2018-04-01T06:25:13.781Z,62.3
2018-04-01T06:26:16.144Z,62.3
2018-04-01T06:27:18.518Z,62.4
2018-04-01T06:28:20.886Z,62.4
2018-04-01T06:29:23.247Z,62.5
2018-04-01T06:30:25.633Z,62.4
2018-04-01T06:31:28.002Z,62.3
2018-04-01T06:32:30.370Z,62.3
2018-04-01T06:33:32.745Z,62.3
2018-04-01T06:34:35.112Z,62.3
2018-04-01T06:35:37.764Z,62.3
2018-04-01T06:36:40.143Z,62.3
2018-04-01T06:37:42.506Z,62.3
2018-04-01T06:38:45.157Z,62.4
2018-04-01T06:39:47.519Z,62.3
2018-04-01T06:40:49.887Z,62.3
2018-04-01T06:41:52.262Z,62.3
2018-04-01T06:42:54.637Z,62.3
2018-04-01T06:43:57.011Z,62.3
2018-04-01T06:44:59.387Z,62.4
2018-04-01T06:46:01.755Z,62.3
2018-04-01T06:47:04.122Z,62.3
2018-04-01T06:48:06.487Z,62.4
2018-04-01T06:49:09.137Z,62.3
2018-04-01T06:50:11.796Z,62.3
2018-04-01T06:51:14.167Z,62.5
2018-04-01T06:52:16.532Z,62.4
2018-04-01T06:53:18.905Z,62.4
2018-04-01T06:54:21.273Z,62.4
2018-04-01T06:55:23.645Z,62.4
2018-04-01T06:56:26.021Z,62.4
2018-04-01T06:57:28.385Z,62.4
2018-04-01T06:58:30.752Z,62.4
2018-04-01T06:59:33.122Z,62.4
2018-04-01T07:00:35.492Z,62.5
2018-04-01T07:01:37.869Z,62.5
2018-04-01T07:02:40.237Z,62.5
2018-04-01T07:03:42.601Z,62.6
2018-04-01T07:04:44.965Z,62.6
2018-04-01T07:05:47.624Z,62.7
2018-04-01T07:06:49.996Z,62.6
2018-04-01T07:07:52.364Z,62.6
2018-04-01T07:08:55.286Z,62.5
2018-04-01T07:09:57.667Z,62.5
2018-04-01T07:11:00.042Z,62.5
2018-04-01T07:12:03.014Z,62.6
2018-04-01T07:13:05.388Z,62.5
2018-04-01T07:14:07.752Z,62.6
2018-04-01T07:15:10.121Z,62.5
2018-04-01T07:16:12.780Z,62.5
2018-04-01T07:17:15.429Z,62.6
2018-04-01T07:18:17.798Z,62.7
2018-04-01T07:19:20.454Z,62.7
2018-04-01T07:20:22.818Z,62.7
2018-04-01T07:21:25.196Z,62.8
2018-04-01T07:22:27.563Z,62.7
2018-04-01T07:23:29.933Z,62.6
2018-04-01T07:24:32.304Z,62.4
2018-04-01T07:25:34.672Z,62.4
2018-04-01T07:26:37.329Z,62.5
2018-04-01T07:27:39.715Z,62.6
2018-04-01T07:28:42.066Z,62.4
2018-04-01T07:29:44.480Z,62.4
2018-04-01T07:30:46.817Z,62.3
2018-04-01T07:31:49.184Z,62.4
2018-04-01T07:32:51.559Z,62.3
2018-04-01T07:33:53.930Z,62.3
2018-04-01T07:34:56.289Z,62.4
2018-04-01T07:35:58.948Z,62.3
2018-04-01T07:37:01.322Z,62.3
2018-04-01T07:38:03.689Z,62.2
2018-04-01T07:39:06.061Z,62.2
2018-04-01T07:40:08.424Z,62.2
2018-04-01T07:41:10.792Z,62.3
2018-04-01T07:42:13.173Z,62.4
2018-04-01T07:43:15.534Z,62.4
2018-04-01T07:44:17.904Z,62.3
2018-04-01T07:45:20.560Z,62.3
2018-04-01T07:46:22.940Z,62.4
2018-04-01T07:47:25.306Z,62.3
2018-04-01T07:48:27.678Z,62.3
2018-04-01T07:49:30.039Z,62.4
2018-04-01T07:50:32.993Z,62.4
2018-04-01T07:51:35.359Z,62.3
2018-04-01T07:52:37.744Z,62.2
2018-04-01T07:53:40.100Z,62.2
2018-04-01T07:54:42.465Z,62.3
2018-04-01T07:55:45.147Z,62.4
2018-04-01T07:56:47.520Z,62.5
2018-04-01T07:57:49.890Z,62.6
2018-04-01T07:58:52.549Z,62.6
2018-04-01T07:59:54.910Z,62.4
2018-04-01T08:00:57.287Z,62.4
2018-04-01T08:01:59.669Z,62.4
2018-04-01T08:03:02.029Z,62.4
2018-04-01T08:04:04.407Z,62.3
2018-04-01T08:05:06.779Z,62.3
2018-04-01T08:06:09.148Z,62.3
2018-04-01T08:07:11.802Z,62.4
2018-04-01T08:08:14.443Z,62.4
2018-04-01T08:09:16.821Z,62.4
2018-04-01T08:10:19.185Z,62.5
2018-04-01T08:11:21.562Z,62.3
2018-04-01T08:12:24.220Z,62.3
2018-04-01T08:13:26.586Z,62.4
2018-04-01T08:14:28.963Z,62.5
2018-04-01T08:15:31.906Z,62.6
2018-04-01T08:16:34.580Z,62.7
2018-04-01T08:17:36.938Z,62.7
2018-04-01T08:18:39.322Z,62.7
2018-04-01T08:19:41.696Z,62.6
2018-04-01T08:20:44.359Z,62.5
2018-04-01T08:21:46.731Z,62.5
2018-04-01T08:22:49.103Z,62.7
2018-04-01T08:23:51.759Z,62.7
2018-04-01T08:24:54.123Z,62.6
2018-04-01T08:25:56.495Z,62.6
2018-04-01T08:26:58.874Z,62.7
2018-04-01T08:28:01.239Z,62.8
2018-04-01T08:29:03.900Z,62.8
2018-04-01T08:30:06.265Z,62.8
2018-04-01T08:31:08.649Z,62.6
2018-04-01T08:32:11.060Z,62.3
2018-04-01T08:33:13.491Z,62.3
2018-04-01T08:34:16.210Z,62.3
2018-04-01T08:35:18.534Z,62.5
2018-04-01T08:36:20.898Z,62.6
2018-04-01T08:37:23.311Z,62.6
2018-04-01T08:38:26.419Z,62.7
2018-04-01T08:39:28.786Z,62.7
2018-04-01T08:40:31.459Z,62.7
2018-04-01T08:41:33.834Z,62.8
2018-04-01T08:42:36.203Z,62.8
2018-04-01T08:43:38.585Z,62.9
2018-04-01T08:44:40.949Z,63
2018-04-01T08:45:43.329Z,63
2018-04-01T08:46:45.702Z,62.9
2018-04-01T08:47:48.345Z,62.8
2018-04-01T08:48:50.734Z,62.8
2018-04-01T08:49:53.171Z,62.8
2018-04-01T08:50:55.558Z,62.9
2018-04-01T08:51:57.935Z,62.9
2018-04-01T08:53:00.295Z,62.9
2018-04-01T08:54:02.666Z,62.8
2018-04-01T08:55:05.316Z,62.7
2018-04-01T08:56:07.729Z,62.8
2018-04-01T08:57:10.106Z,62.8
2018-04-01T08:58:12.512Z,62.7
2018-04-01T08:59:14.892Z,62.8
2018-04-01T09:00:17.349Z,62.7
2018-04-01T09:01:19.708Z,62.6
2018-04-01T09:02:22.365Z,62.7
2018-04-01T09:03:24.810Z,62.9
2018-04-01T09:04:27.172Z,62.9
2018-04-01T09:05:29.593Z,63
2018-04-01T09:06:31.969Z,63
2018-04-01T09:07:34.402Z,63
2018-04-01T09:08:36.781Z,63
2018-04-01T09:09:39.238Z,63.1
2018-04-01T09:10:41.603Z,63.1
2018-04-01T09:11:44.038Z,63.1
2018-04-01T09:12:46.401Z,63
2018-04-01T09:13:49.092Z,62.9
2018-04-01T09:14:51.484Z,62.8
2018-04-01T09:15:53.880Z,62.8
2018-04-01T09:16:56.307Z,62.7
2018-04-01T09:17:58.634Z,62.9
2018-04-01T09:19:01.282Z,62.9
2018-04-01T09:20:03.958Z,62.9
2018-04-01T09:21:06.613Z,62.9
2018-04-01T09:22:09.044Z,62.9
2018-04-01T09:23:11.344Z,62.9
2018-04-01T09:24:13.829Z,63
2018-04-01T09:25:16.203Z,63.1
2018-04-01T09:26:18.618Z,62.7
2018-04-01T09:27:20.997Z,62.7
2018-04-01T09:28:23.374Z,62.7
2018-04-01T09:29:25.824Z,62.6
2018-04-01T09:30:28.495Z,62.5
2018-04-01T09:31:30.862Z,62.5
2018-04-01T09:32:33.227Z,62.5
2018-04-01T09:33:35.626Z,62.5
2018-04-01T09:34:37.999Z,62.5
2018-04-01T09:35:40.604Z,62.4
2018-04-01T09:36:42.968Z,62.4
2018-04-01T09:37:45.340Z,62.4
2018-04-01T09:38:47.777Z,62.5
2018-04-01T09:39:50.098Z,62.3
2018-04-01T09:40:52.465Z,62.2
2018-04-01T09:41:55.122Z,62.3
2018-04-01T09:42:57.772Z,62.2
2018-04-01T09:44:00.158Z,62.3
2018-04-01T09:45:02.528Z,62.2
2018-04-01T09:46:04.898Z,62.2
2018-04-01T09:47:07.276Z,62
2018-04-01T09:48:09.667Z,62
2018-04-01T09:49:12.032Z,61.8
2018-04-01T09:50:14.397Z,61.9
2018-04-01T09:51:16.780Z,62
2018-04-01T09:52:19.146Z,62.1
2018-04-01T09:53:21.518Z,62.1
2018-04-01T09:54:23.898Z,62.1
2018-04-01T09:55:26.556Z,62.1
2018-04-01T09:56:28.925Z,62
2018-04-01T09:57:31.583Z,61.9
2018-04-01T09:58:33.951Z,61.9
2018-04-01T09:59:36.327Z,61.9
2018-04-01T10:00:38.993Z,62.1
2018-04-01T10:01:41.363Z,62.1
2018-04-01T10:02:43.739Z,62.1
2018-04-01T10:03:46.120Z,62.1
2018-04-01T10:04:48.483Z,62.1
2018-04-01T10:05:50.845Z,62.1
2018-04-01T10:06:53.224Z,61.9
2018-04-01T10:07:55.891Z,62
2018-04-01T10:08:58.269Z,62.1
2018-04-01T10:10:00.644Z,62.1
2018-04-01T10:11:03.287Z,62.1
2018-04-01T10:12:05.671Z,62.1
2018-04-01T10:13:08.044Z,62
2018-04-01T10:14:10.422Z,61.9
2018-04-01T10:15:12.795Z,61.8
2018-04-01T10:16:15.171Z,61.8
2018-04-01T10:17:17.538Z,61.7
2018-04-01T10:18:19.909Z,61.7
2018-04-01T10:19:22.293Z,61.7
2018-04-01T10:20:24.665Z,61.7
2018-04-01T10:21:27.324Z,61.6
2018-04-01T10:22:29.710Z,61.8
2018-04-01T10:23:32.075Z,61.9
2018-04-01T10:24:34.449Z,62
2018-04-01T10:25:37.104Z,62
2018-04-01T10:26:39.490Z,62.1
2018-04-01T10:27:41.855Z,62.1
2018-04-01T10:28:44.235Z,62.1
2018-04-01T10:29:46.889Z,61.9
2018-04-01T10:30:49.537Z,61.8
2018-04-01T10:31:51.907Z,61.8
2018-04-01T10:32:54.292Z,61.7
2018-04-01T10:33:56.666Z,61.8
2018-04-01T10:34:59.321Z,61.8
2018-04-01T10:36:01.967Z,61.7
2018-04-01T10:37:04.337Z,61.7
2018-04-01T10:38:06.710Z,61.7
2018-04-01T10:39:09.087Z,61.7
2018-04-01T10:40:11.452Z,61.7
2018-04-01T10:41:13.825Z,61.7
2018-04-01T10:42:16.195Z,61.6
2018-04-01T10:43:18.622Z,61.7
2018-04-01T10:44:20.940Z,61.9
2018-04-01T10:45:23.309Z,62
2018-04-01T10:46:25.671Z,61.9
2018-04-01T10:47:28.055Z,61.8
2018-04-01T10:48:30.436Z,61.8
2018-04-01T10:49:32.832Z,61.8
2018-04-01T10:50:35.177Z,61.8
2018-04-01T10:51:37.556Z,61.7
2018-04-01T10:52:39.920Z,61.6
2018-04-01T10:53:42.305Z,61.7
2018-04-01T10:54:44.684Z,61.7
2018-04-01T10:55:47.314Z,61.7
2018-04-01T10:56:49.704Z,61.7
2018-04-01T10:57:52.076Z,61.8
2018-04-01T10:58:54.447Z,61.9
2018-04-01T10:59:56.823Z,62
2018-04-01T11:00:59.191Z,61.9
2018-04-01T11:02:01.845Z,61.9
2018-04-01T11:03:04.231Z,61.7
2018-04-01T11:04:06.593Z,61.6
2018-04-01T11:05:09.280Z,61.6
2018-04-01T11:06:11.628Z,61.5
2018-04-01T11:07:13.997Z,61.4
2018-04-01T11:08:16.375Z,61.1
2018-04-01T11:09:19.053Z,61
2018-04-01T11:10:21.432Z,61.1
2018-04-01T11:11:23.870Z,61.1
2018-04-01T11:12:26.481Z,61.2
2018-04-01T11:13:28.851Z,61.3
2018-04-01T11:14:31.217Z,61.2
2018-04-01T11:15:33.594Z,61.3
2018-04-01T11:16:36.247Z,61.3
2018-04-01T11:17:38.619Z,61.2
2018-04-01T11:18:41.004Z,60.9
2018-04-01T11:19:43.383Z,60.9
2018-04-01T11:20:45.742Z,61.1
2018-04-01T11:21:48.403Z,61.1
2018-04-01T11:22:50.777Z,61.1
2018-04-01T11:23:53.146Z,61.1
2018-04-01T11:24:55.528Z,61.1
2018-04-01T11:25:57.911Z,61.2
2018-04-01T11:27:00.562Z,61.1
2018-04-01T11:28:02.952Z,61.1
2018-04-01T11:29:05.327Z,61
2018-04-01T11:30:07.704Z,61
2018-04-01T11:31:10.127Z,61.1
2018-04-01T11:32:12.748Z,61.2
2018-04-01T11:33:15.401Z,61.2
2018-04-01T11:34:18.072Z,61.1
2018-04-01T11:35:20.728Z,61.2
2018-04-01T11:36:23.106Z,61.3
2018-04-01T11:37:25.484Z,61.2
2018-04-01T11:38:27.864Z,61.2
2018-04-01T11:39:30.232Z,61.1
2018-04-01T11:40:32.607Z,61.1
2018-04-01T11:41:34.974Z,61.1
2018-04-01T11:42:37.634Z,61.1
2018-04-01T11:43:39.997Z,61.1
2018-04-01T11:44:42.373Z,61
2018-04-01T11:45:45.320Z,61
2018-04-01T11:46:47.700Z,61
2018-04-01T11:47:50.648Z,61
2018-04-01T11:48:53.023Z,61
2018-04-01T11:49:55.399Z,61
2018-04-01T11:50:58.389Z,60.9
2018-04-01T11:52:00.729Z,61.1
2018-04-01T11:53:03.378Z,61.1
2018-04-01T11:54:05.743Z,61.2
2018-04-01T11:55:08.115Z,61.4
2018-04-01T11:56:10.482Z,61.3
2018-04-01T11:57:12.857Z,61.4
2018-04-01T11:58:15.228Z,61.4
2018-04-01T11:59:17.609Z,61.6
2018-04-01T12:00:20.013Z,61.6
2018-04-01T12:01:22.794Z,61.4
2018-04-01T12:02:25.602Z,61.2
2018-04-01T12:03:28.004Z,61.2
2018-04-01T12:04:30.380Z,61.2
2018-04-01T12:05:32.754Z,61.1
2018-04-01T12:06:35.414Z,61.1
2018-04-01T12:07:37.801Z,61.2
2018-04-01T12:08:40.171Z,61.2
2018-04-01T12:09:42.537Z,61.2
2018-04-01T12:10:44.918Z,61.4
2018-04-01T12:11:47.302Z,61.4
2018-04-01T12:12:49.658Z,61.5
2018-04-01T12:13:52.033Z,61.4
2018-04-01T12:14:54.700Z,61.4
2018-04-01T12:15:57.081Z,61.3
2018-04-01T12:16:59.454Z,61.4
2018-04-01T12:18:02.117Z,61.4
2018-04-01T12:19:04.779Z,61.5
2018-04-01T12:20:07.179Z,61.4
2018-04-01T12:21:09.516Z,61.4
2018-04-01T12:22:11.891Z,61.3
2018-04-01T12:23:14.261Z,61.2
2018-04-01T12:24:16.635Z,61.1
2018-04-01T12:25:19.009Z,61
2018-04-01T12:26:21.378Z,60.9
2018-04-01T12:27:23.762Z,60.9
2018-04-01T12:28:26.137Z,60.9
2018-04-01T12:29:28.518Z,60.8
2018-04-01T12:30:30.890Z,61
2018-04-01T12:31:33.260Z,60.8
2018-04-01T12:32:35.632Z,60.8
2018-04-01T12:33:38.010Z,60.9
2018-04-01T12:34:40.383Z,60.9
2018-04-01T12:35:42.747Z,60.9
2018-04-01T12:36:45.136Z,60.8
2018-04-01T12:37:47.508Z,60.9
2018-04-01T12:38:50.211Z,60.9
2018-04-01T12:39:52.842Z,61
2018-04-01T12:40:55.214Z,61
2018-04-01T12:41:57.587Z,61.1
2018-04-01T12:42:59.966Z,61.4
2018-04-01T12:44:02.619Z,61.6
2018-04-01T12:45:05.005Z,61.7
2018-04-01T12:46:07.679Z,61.6
2018-04-01T12:47:10.326Z,61.5
2018-04-01T12:48:12.696Z,61.4
2018-04-01T12:49:15.069Z,61.2
2018-04-01T12:50:17.440Z,61.2
2018-04-01T12:51:19.804Z,61.1
2018-04-01T12:52:22.180Z,61.2
2018-04-01T12:53:24.554Z,61.1
2018-04-01T12:54:26.939Z,61
2018-04-01T12:55:29.307Z,61.1
2018-04-01T12:56:31.679Z,61.1
2018-04-01T12:57:34.051Z,61.2
2018-04-01T12:58:36.437Z,61.2
2018-04-01T12:59:38.813Z,61.1
2018-04-01T13:00:41.461Z,61.1
2018-04-01T13:01:43.847Z,61.1
2018-04-01T13:02:46.206Z,61
2018-04-01T13:03:48.579Z,61
2018-04-01T13:04:51.223Z,60.9
2018-04-01T13:05:53.599Z,61
2018-04-01T13:06:56.256Z,61.1
2018-04-01T13:07:58.912Z,61.4
2018-04-01T13:09:01.280Z,61.5
2018-04-01T13:10:03.671Z,61.5
2018-04-01T13:11:06.040Z,61.4
2018-04-01T13:12:08.415Z,61.3
2018-04-01T13:13:10.784Z,61.3
2018-04-01T13:14:13.150Z,61.3
2018-04-01T13:15:15.518Z,61.4
2018-04-01T13:16:17.903Z,61.3
2018-04-01T13:17:20.269Z,61.1
2018-04-01T13:18:22.647Z,61.1
2018-04-01T13:19:25.014Z,61.1
2018-04-01T13:20:27.666Z,61
2018-04-01T13:21:30.047Z,61
2018-04-01T13:22:32.702Z,61.1
2018-04-01T13:23:35.077Z,61.1
2018-04-01T13:24:37.460Z,61
2018-04-01T13:25:40.121Z,61.1
2018-04-01T13:26:42.492Z,61.1
2018-04-01T13:27:44.862Z,61.1
2018-04-01T13:28:47.235Z,61
2018-04-01T13:29:50.241Z,61
2018-04-01T13:30:52.615Z,60.8
2018-04-01T13:31:55.270Z,60.8
2018-04-01T13:32:57.646Z,61
2018-04-01T13:34:00.044Z,60.8
2018-04-01T13:35:02.428Z,60.9
2018-04-01T13:36:05.081Z,61.1
2018-04-01T13:37:07.477Z,61
2018-04-01T13:38:09.865Z,60.9
2018-04-01T13:39:12.236Z,60.8
2018-04-01T13:40:14.606Z,61
2018-04-01T13:41:16.975Z,61.1
2018-04-01T13:42:19.350Z,61.1
2018-04-01T13:43:21.743Z,61.1
2018-04-01T13:44:24.107Z,61
2018-04-01T13:45:26.477Z,61.1
2018-04-01T13:46:29.134Z,61
2018-04-01T13:47:31.512Z,61
2018-04-01T13:48:34.152Z,61.1
2018-04-01T13:49:36.537Z,61.1
2018-04-01T13:50:38.916Z,61.1
2018-04-01T13:51:41.296Z,61.2
2018-04-01T13:52:43.675Z,61.3
2018-04-01T13:53:46.042Z,61.2
2018-04-01T13:54:48.414Z,61.3
2018-04-01T13:55:50.799Z,61.2